createdAt,value
2018-11-27T00:00:33.901Z,20.68
2018-11-27T00:01:08.641Z,17.60
2018-11-27T00:01:43.181Z,19.37
2018-11-27T00:02:17.865Z,18.10
2018-11-27T00:02:53.783Z,19.85
2018-11-27T00:03:32.423Z,17.15
2018-11-27T00:04:07.235Z,18.00
2018-11-27T00:04:41.783Z,20.17
2018-11-27T00:05:16.361Z,16.82
2018-11-27T00:05:50.882Z,15.90
2018-11-27T00:06:25.861Z,18.42
2018-11-27T00:07:00.301Z,18.50
2018-11-27T00:07:35.002Z,19.57
2018-11-27T00:08:09.663Z,19.77
2018-11-27T00:08:44.329Z,20.45
2018-11-27T00:09:18.821Z,21.07
2018-11-27T00:09:53.441Z,21.52
2018-11-27T00:10:27.981Z,23.30
2018-11-27T00:11:02.681Z,20.80
2018-11-27T00:11:37.283Z,22.67
2018-11-27T00:12:11.902Z,20.72
2018-11-27T00:12:46.441Z,20.43
2018-11-27T00:13:21.001Z,21.85
2018-11-27T00:13:55.562Z,21.23
2018-11-27T00:14:30.203Z,20.08
2018-11-27T00:15:06.061Z,21.40
2018-11-27T00:15:40.601Z,20.32
2018-11-27T00:16:15.421Z,21.87
2018-11-27T00:16:49.921Z,20.45
2018-11-27T00:17:24.623Z,19.27
2018-11-27T00:17:59.201Z,22.27
2018-11-27T00:18:33.861Z,20.95
2018-11-27T00:19:08.401Z,21.57
2018-11-27T00:19:42.961Z,20.48
2018-11-27T00:20:17.501Z,21.07
2018-11-27T00:20:52.189Z,19.82
2018-11-27T00:21:26.841Z,20.08
2018-11-27T00:22:01.583Z,17.98
2018-11-27T00:22:36.141Z,16.65
2018-11-27T00:23:10.843Z,19.20
2018-11-27T00:23:45.362Z,17.90
2018-11-27T00:24:20.081Z,17.02
2018-11-27T00:24:54.701Z,19.45
2018-11-27T00:25:29.381Z,19.77
2018-11-27T00:26:03.821Z,19.57
2018-11-27T00:26:38.503Z,20.20
2018-11-27T00:27:13.121Z,18.40
2018-11-27T00:27:47.823Z,18.00
2018-11-27T00:28:22.362Z,18.35
2018-11-27T00:28:57.061Z,19.17
2018-11-27T00:29:31.582Z,18.50
2018-11-27T00:30:12.461Z,19.02
2018-11-27T00:30:46.941Z,20.15
2018-11-27T00:31:21.661Z,17.07
2018-11-27T00:31:56.381Z,19.57
2018-11-27T00:32:31.121Z,18.02
2018-11-27T00:33:05.781Z,17.98
2018-11-27T00:33:40.281Z,19.12
2018-11-27T00:34:14.841Z,20.10
2018-11-27T00:34:49.400Z,20.00
2018-11-27T00:35:23.963Z,17.57
2018-11-27T00:35:58.381Z,19.42
2018-11-27T00:36:33.076Z,17.00
2018-11-27T00:37:07.661Z,17.77
2018-11-27T00:37:42.341Z,17.35
2018-11-27T00:38:16.821Z,21.07
2018-11-27T00:38:51.482Z,18.15
2018-11-27T00:39:25.921Z,18.40
2018-11-27T00:40:00.621Z,19.95
2018-11-27T00:40:35.241Z,17.98
2018-11-27T00:41:09.941Z,17.17
2018-11-27T00:41:44.482Z,16.50
2018-11-27T00:42:19.042Z,15.65
2018-11-27T00:42:53.661Z,18.82
2018-11-27T00:43:28.161Z,18.27
2018-11-27T00:44:02.721Z,16.32
2018-11-27T00:44:37.782Z,18.27
2018-11-27T00:45:14.301Z,17.80
2018-11-27T00:45:48.901Z,18.05
2018-11-27T00:46:23.421Z,18.27
2018-11-27T00:46:58.081Z,18.90
2018-11-27T00:47:32.562Z,18.50
2018-11-27T00:48:07.541Z,18.80
2018-11-27T00:48:42.201Z,19.92
2018-11-27T00:49:16.761Z,19.27
2018-11-27T00:49:51.461Z,18.98
2018-11-27T00:50:26.002Z,19.73
2018-11-27T00:51:00.581Z,18.50
2018-11-27T00:51:35.201Z,18.73
2018-11-27T00:52:09.741Z,18.27
2018-11-27T00:52:44.352Z,19.27
2018-11-27T00:53:18.942Z,20.08
2018-11-27T00:53:53.561Z,20.40
2018-11-27T00:54:28.101Z,21.27
2018-11-27T00:55:02.741Z,19.65
2018-11-27T00:55:37.321Z,18.48
2018-11-27T00:56:11.861Z,20.05
2018-11-27T00:56:46.421Z,20.37
2018-11-27T00:57:21.001Z,17.10
2018-11-27T00:57:55.526Z,19.10
2018-11-27T00:58:30.220Z,19.42
2018-11-27T00:59:11.141Z,19.20
2018-11-27T00:59:45.781Z,19.25
2018-11-27T01:00:22.065Z,17.27
2018-11-27T01:00:56.742Z,18.75
2018-11-27T01:01:31.201Z,19.90
2018-11-27T01:02:06.129Z,19.20
2018-11-27T01:02:40.661Z,18.23
2018-11-27T01:03:15.341Z,16.00
2018-11-27T01:03:49.961Z,19.17
2018-11-27T01:04:24.641Z,19.55
2018-11-27T01:04:59.341Z,19.92
2018-11-27T01:05:33.862Z,19.17
2018-11-27T01:06:08.541Z,17.62
2018-11-27T01:06:43.081Z,18.20
2018-11-27T01:07:17.541Z,19.37
2018-11-27T01:07:52.085Z,19.57
2018-11-27T01:08:26.621Z,17.40
2018-11-27T01:09:01.429Z,18.15
2018-11-27T01:09:35.981Z,19.50
2018-11-27T01:10:12.081Z,17.57
2018-11-27T01:10:46.801Z,15.95
2018-11-27T01:11:21.521Z,17.90
2018-11-27T01:11:56.061Z,17.25
2018-11-27T01:12:30.721Z,20.37
2018-11-27T01:13:05.292Z,18.17
2018-11-27T01:13:39.961Z,19.37
2018-11-27T01:14:14.662Z,19.40
2018-11-27T01:14:49.261Z,18.45
2018-11-27T01:15:24.061Z,18.35
2018-11-27T01:15:58.740Z,18.50
2018-11-27T01:16:33.261Z,19.92
2018-11-27T01:17:07.944Z,17.35
2018-11-27T01:17:49.521Z,18.27
2018-11-27T01:18:24.201Z,19.98
2018-11-27T01:18:58.640Z,18.50
2018-11-27T01:19:33.242Z,18.77
2018-11-27T01:20:11.681Z,19.12
2018-11-27T01:20:46.221Z,18.55
2018-11-27T01:21:20.681Z,18.48
2018-11-27T01:21:55.347Z,20.85
2018-11-27T01:22:29.881Z,19.55
2018-11-27T01:23:04.461Z,19.07
2018-11-27T01:23:39.001Z,18.82
2018-11-27T01:24:13.700Z,16.15
2018-11-27T01:24:48.201Z,18.32
2018-11-27T01:25:22.781Z,18.20
2018-11-27T01:25:57.342Z,17.73
2018-11-27T01:26:32.061Z,18.52
2018-11-27T01:27:06.901Z,17.87
2018-11-27T01:27:41.604Z,17.12
2018-11-27T01:28:16.161Z,19.00
2018-11-27T01:28:50.781Z,18.98
2018-11-27T01:29:25.321Z,21.17
2018-11-27T01:30:00.082Z,19.25
2018-11-27T01:30:34.621Z,18.60
2018-11-27T01:31:09.120Z,18.55
2018-11-27T01:31:43.661Z,18.05
2018-11-27T01:32:18.361Z,19.02
2018-11-27T01:32:53.080Z,18.80
2018-11-27T01:33:27.820Z,18.92
2018-11-27T01:34:02.422Z,18.70
2018-11-27T01:34:37.122Z,18.87
2018-11-27T01:35:15.694Z,15.58
2018-11-27T01:35:50.284Z,17.32
2018-11-27T01:36:24.841Z,20.90
2018-11-27T01:36:59.364Z,17.35
2018-11-27T01:37:33.989Z,19.05
2018-11-27T01:38:08.461Z,18.62
2018-11-27T01:38:43.020Z,19.62
2018-11-27T01:39:17.621Z,20.20
2018-11-27T01:39:52.081Z,17.90
2018-11-27T01:40:27.820Z,17.30
2018-11-27T01:41:02.450Z,17.35
2018-11-27T01:41:37.040Z,21.37
2018-11-27T01:42:11.701Z,19.60
2018-11-27T01:42:46.722Z,21.30
2018-11-27T01:43:21.342Z,19.10
2018-11-27T01:43:56.020Z,20.00
2018-11-27T01:44:30.641Z,17.95
2018-11-27T01:45:05.981Z,18.55
2018-11-27T01:45:40.760Z,20.08
2018-11-27T01:46:15.220Z,17.73
2018-11-27T01:46:49.901Z,18.95
2018-11-27T01:47:24.522Z,20.10
2018-11-27T01:47:59.220Z,20.08
2018-11-27T01:48:33.880Z,18.27
2018-11-27T01:49:08.541Z,17.07
2018-11-27T01:49:43.044Z,19.05
2018-11-27T01:50:18.284Z,18.50
2018-11-27T01:50:52.962Z,19.05
2018-11-27T01:51:27.521Z,15.20
2018-11-27T01:52:02.201Z,16.80
2018-11-27T01:52:36.761Z,19.60
2018-11-27T01:53:17.681Z,17.70
2018-11-27T01:53:52.211Z,18.87
2018-11-27T01:54:26.802Z,18.20
2018-11-27T01:55:01.342Z,13.93
2018-11-27T01:55:36.041Z,18.73
2018-11-27T01:56:10.701Z,18.30
2018-11-27T01:56:45.360Z,19.42
2018-11-27T01:57:19.880Z,17.75
2018-11-27T01:57:54.582Z,19.30
2018-11-27T01:58:29.201Z,19.27
2018-11-27T01:59:03.902Z,20.23
2018-11-27T01:59:38.421Z,18.35
2018-11-27T02:00:21.483Z,21.15
2018-11-27T02:00:56.120Z,18.92
2018-11-27T02:01:30.822Z,20.88
2018-11-27T02:02:05.441Z,19.57
2018-11-27T02:02:39.881Z,18.82
2018-11-27T02:03:14.582Z,19.37
2018-11-27T02:03:49.121Z,19.30
2018-11-27T02:04:23.801Z,19.25
2018-11-27T02:04:58.326Z,18.32
2018-11-27T02:05:33.009Z,19.15
2018-11-27T02:06:07.721Z,19.27
2018-11-27T02:06:42.321Z,19.35
2018-11-27T02:07:16.882Z,18.50
2018-11-27T02:07:51.541Z,19.95
2018-11-27T02:08:26.081Z,19.20
2018-11-27T02:09:00.782Z,19.80
2018-11-27T02:09:35.322Z,19.12
2018-11-27T02:10:11.982Z,20.48
2018-11-27T02:10:46.562Z,20.45
2018-11-27T02:11:21.161Z,19.73
2018-11-27T02:11:55.781Z,20.37
2018-11-27T02:12:30.403Z,19.80
2018-11-27T02:13:04.941Z,21.65
2018-11-27T02:13:39.501Z,19.67
2018-11-27T02:14:14.041Z,20.72
2018-11-27T02:14:48.621Z,18.92
2018-11-27T02:15:28.181Z,19.60
2018-11-27T02:16:02.681Z,19.77
2018-11-27T02:16:37.301Z,19.30
2018-11-27T02:17:11.961Z,20.10
2018-11-27T02:17:46.504Z,19.05
2018-11-27T02:18:21.101Z,20.70
2018-11-27T02:18:55.641Z,20.08
2018-11-27T02:19:30.342Z,18.90
2018-11-27T02:20:05.002Z,20.80
2018-11-27T02:20:39.582Z,20.72
2018-11-27T02:21:14.085Z,20.02
2018-11-27T02:21:48.781Z,19.42
2018-11-27T02:22:23.441Z,20.30
2018-11-27T02:22:58.020Z,21.23
2018-11-27T02:23:32.641Z,20.15
2018-11-27T02:24:07.381Z,20.95
2018-11-27T02:24:41.863Z,22.25
2018-11-27T02:25:23.922Z,22.30
2018-11-27T02:25:58.364Z,20.10
2018-11-27T02:26:32.903Z,20.72
2018-11-27T02:27:07.723Z,20.97
2018-11-27T02:27:42.261Z,19.50
2018-11-27T02:28:16.902Z,20.77
2018-11-27T02:28:51.343Z,20.88
2018-11-27T02:29:26.101Z,20.60
2018-11-27T02:30:00.549Z,21.17
2018-11-27T02:30:35.122Z,19.45
2018-11-27T02:31:09.642Z,16.10
2018-11-27T02:31:44.344Z,20.30
2018-11-27T02:32:18.903Z,20.40
2018-11-27T02:32:53.662Z,20.37
2018-11-27T02:33:28.202Z,20.48
2018-11-27T02:34:02.922Z,18.73
2018-11-27T02:34:37.541Z,19.80
2018-11-27T02:35:14.863Z,19.50
2018-11-27T02:35:49.403Z,18.73
2018-11-27T02:36:23.943Z,18.30
2018-11-27T02:36:58.561Z,18.70
2018-11-27T02:37:33.061Z,18.85
2018-11-27T02:38:07.722Z,17.67
2018-11-27T02:38:42.245Z,17.48
2018-11-27T02:39:16.862Z,18.02
2018-11-27T02:39:51.423Z,18.70
2018-11-27T02:40:26.061Z,18.52
2018-11-27T02:41:00.582Z,17.15
2018-11-27T02:41:35.083Z,17.07
2018-11-27T02:42:09.663Z,17.77
2018-11-27T02:42:44.304Z,17.85
2018-11-27T02:43:18.942Z,18.02
2018-11-27T02:43:53.602Z,17.55
2018-11-27T02:44:28.162Z,17.05
2018-11-27T02:45:02.861Z,18.45
2018-11-27T02:45:37.389Z,18.23
2018-11-27T02:46:12.082Z,17.00
2018-11-27T02:46:46.624Z,18.85
2018-11-27T02:47:21.210Z,19.02
2018-11-27T02:47:56.064Z,18.87
2018-11-27T02:48:37.182Z,17.12
2018-11-27T02:49:11.724Z,17.98
2018-11-27T02:49:46.422Z,16.50
2018-11-27T02:50:22.045Z,17.23
2018-11-27T02:50:56.582Z,18.57
2018-11-27T02:51:31.161Z,17.92
2018-11-27T02:52:05.802Z,18.42
2018-11-27T02:52:40.521Z,20.15
2018-11-27T02:53:15.144Z,20.85
2018-11-27T02:53:49.863Z,19.57
2018-11-27T02:54:24.361Z,19.98
2018-11-27T02:54:59.065Z,16.57
2018-11-27T02:55:33.629Z,20.60
2018-11-27T02:56:08.143Z,18.92
2018-11-27T02:56:42.701Z,20.65
2018-11-27T02:57:17.266Z,19.35
2018-11-27T02:57:51.831Z,18.75
2018-11-27T02:58:26.405Z,18.98
2018-11-27T02:59:00.903Z,19.95
2018-11-27T02:59:35.421Z,19.65
2018-11-27T03:00:12.782Z,17.87
2018-11-27T03:00:47.362Z,18.40
2018-11-27T03:01:21.861Z,21.15
2018-11-27T03:01:56.461Z,18.50
2018-11-27T03:02:30.922Z,17.42
2018-11-27T03:03:05.784Z,17.67
2018-11-27T03:03:40.463Z,18.57
2018-11-27T03:04:15.064Z,18.32
2018-11-27T03:04:49.582Z,18.05
2018-11-27T03:05:28.368Z,16.52
2018-11-27T03:06:02.824Z,19.12
2018-11-27T03:06:37.389Z,17.17
2018-11-27T03:07:12.003Z,17.67
2018-11-27T03:07:46.544Z,17.65
2018-11-27T03:08:21.102Z,20.50
2018-11-27T03:08:55.763Z,18.00
2018-11-27T03:09:30.445Z,18.05
2018-11-27T03:10:05.666Z,17.70
2018-11-27T03:10:40.143Z,15.88
2018-11-27T03:11:14.802Z,18.05
2018-11-27T03:11:49.241Z,17.80
2018-11-27T03:12:23.763Z,19.23
2018-11-27T03:12:58.449Z,18.70
2018-11-27T03:13:32.943Z,18.57
2018-11-27T03:14:08.101Z,18.75
2018-11-27T03:14:42.861Z,17.90
2018-11-27T03:15:18.101Z,15.95
2018-11-27T03:15:52.662Z,18.37
2018-11-27T03:16:27.322Z,16.67
2018-11-27T03:17:01.869Z,19.48
2018-11-27T03:17:36.542Z,20.30
2018-11-27T03:18:10.963Z,18.92
2018-11-27T03:18:45.581Z,16.35
2018-11-27T03:19:20.281Z,18.80
2018-11-27T03:19:54.804Z,17.57
2018-11-27T03:20:29.303Z,17.73
2018-11-27T03:21:03.762Z,14.30
2018-11-27T03:21:38.422Z,14.73
2018-11-27T03:22:12.982Z,15.78
2018-11-27T03:22:47.541Z,18.55
2018-11-27T03:23:22.081Z,16.07
2018-11-27T03:23:56.722Z,17.92
2018-11-27T03:24:31.221Z,17.17
2018-11-27T03:25:06.724Z,17.15
2018-11-27T03:25:41.321Z,17.70
2018-11-27T03:26:15.742Z,18.37
2018-11-27T03:26:50.243Z,18.05
2018-11-27T03:27:24.962Z,17.77
2018-11-27T03:27:59.521Z,19.02
2018-11-27T03:28:34.181Z,17.52
2018-11-27T03:29:08.721Z,18.90
2018-11-27T03:29:43.401Z,17.30
2018-11-27T03:30:19.882Z,17.35
2018-11-27T03:30:54.462Z,15.68
2018-11-27T03:31:29.063Z,13.70
2018-11-27T03:32:03.604Z,17.12
2018-11-27T03:32:38.309Z,18.98
2018-11-27T03:33:12.938Z,18.15
2018-11-27T03:33:47.422Z,16.05
2018-11-27T03:34:22.021Z,18.23
2018-11-27T03:34:56.621Z,16.97
2018-11-27T03:35:31.242Z,15.25
2018-11-27T03:36:05.902Z,16.93
2018-11-27T03:36:40.482Z,18.37
2018-11-27T03:37:15.182Z,16.82
2018-11-27T03:37:50.010Z,17.00
2018-11-27T03:38:24.601Z,16.27
2018-11-27T03:38:59.141Z,18.37
2018-11-27T03:39:33.842Z,16.75
2018-11-27T03:40:12.062Z,15.35
2018-11-27T03:40:46.742Z,17.95
2018-11-27T03:41:21.102Z,17.32
2018-11-27T03:41:55.642Z,16.90
2018-11-27T03:42:30.184Z,17.37
2018-11-27T03:43:04.929Z,16.07
2018-11-27T03:43:39.462Z,16.57
2018-11-27T03:44:14.101Z,18.30
2018-11-27T03:44:48.524Z,17.92
2018-11-27T03:45:23.842Z,17.07
2018-11-27T03:45:58.643Z,17.73
2018-11-27T03:46:33.181Z,16.75
2018-11-27T03:47:07.762Z,16.97
2018-11-27T03:47:42.201Z,17.00
2018-11-27T03:48:16.762Z,17.15
2018-11-27T03:48:51.302Z,19.00
2018-11-27T03:49:25.842Z,17.27
2018-11-27T03:50:00.622Z,18.02
2018-11-27T03:50:35.302Z,16.50
2018-11-27T03:51:10.023Z,18.25
2018-11-27T03:51:44.503Z,16.90
2018-11-27T03:52:19.183Z,18.20
2018-11-27T03:52:53.630Z,18.02
2018-11-27T03:53:28.203Z,18.10
2018-11-27T03:54:02.823Z,18.17
2018-11-27T03:54:37.502Z,17.30
2018-11-27T03:55:12.745Z,18.75
2018-11-27T03:55:47.263Z,16.73
2018-11-27T03:56:22.062Z,17.00
2018-11-27T03:56:56.642Z,15.05
2018-11-27T03:57:31.284Z,15.78
2018-11-27T03:58:05.723Z,17.20
2018-11-27T03:58:40.146Z,17.57
2018-11-27T03:59:14.827Z,16.32
2018-11-27T03:59:49.322Z,17.35
2018-11-27T04:00:28.387Z,16.48
2018-11-27T04:01:02.945Z,15.48
2018-11-27T04:01:37.841Z,15.13
2018-11-27T04:02:12.222Z,16.77
2018-11-27T04:02:47.966Z,16.15
2018-11-27T04:03:22.522Z,16.65
2018-11-27T04:03:57.143Z,16.30
2018-11-27T04:04:31.804Z,15.18
2018-11-27T04:05:06.801Z,16.37
2018-11-27T04:05:41.622Z,17.17
2018-11-27T04:06:16.183Z,16.73
2018-11-27T04:06:50.762Z,17.57
2018-11-27T04:07:25.422Z,15.65
2018-11-27T04:07:59.942Z,16.17
2018-11-27T04:08:34.522Z,17.48
2018-11-27T04:09:10.603Z,16.97
2018-11-27T04:09:45.283Z,17.42
2018-11-27T04:10:20.362Z,17.62
2018-11-27T04:10:54.961Z,17.10
2018-11-27T04:11:29.401Z,15.90
2018-11-27T04:12:04.022Z,18.67
2018-11-27T04:12:38.582Z,16.85
2018-11-27T04:13:13.168Z,17.65
2018-11-27T04:13:47.702Z,18.17
2018-11-27T04:14:22.283Z,17.42
2018-11-27T04:14:56.955Z,17.40
2018-11-27T04:15:31.658Z,17.85
2018-11-27T04:16:06.497Z,17.00
2018-11-27T04:16:41.175Z,16.27
2018-11-27T04:17:15.846Z,16.15
2018-11-27T04:17:50.565Z,17.40
2018-11-27T04:18:25.052Z,17.62
2018-11-27T04:18:59.693Z,18.17
2018-11-27T04:19:34.246Z,16.15
2018-11-27T04:20:09.791Z,15.10
2018-11-27T04:20:44.378Z,15.45
2018-11-27T04:21:18.964Z,15.30
2018-11-27T04:21:53.704Z,16.73
2018-11-27T04:22:28.324Z,16.80
2018-11-27T04:23:02.925Z,16.65
2018-11-27T04:23:37.424Z,16.27
2018-11-27T04:24:12.145Z,16.45
2018-11-27T04:24:46.831Z,16.32
2018-11-27T04:25:21.565Z,16.05
2018-11-27T04:25:56.165Z,14.55
2018-11-27T04:26:30.824Z,16.48
2018-11-27T04:27:05.366Z,16.40
2018-11-27T04:27:40.184Z,16.52
2018-11-27T04:28:14.684Z,16.25
2018-11-27T04:28:49.344Z,16.67
2018-11-27T04:29:23.908Z,16.17
2018-11-27T04:29:58.565Z,16.60
2018-11-27T04:30:33.185Z,16.77
2018-11-27T04:31:07.784Z,15.23
2018-11-27T04:31:42.384Z,17.05
2018-11-27T04:32:17.004Z,15.83
2018-11-27T04:32:51.714Z,16.23
2018-11-27T04:33:26.544Z,16.52
2018-11-27T04:34:01.105Z,15.93
2018-11-27T04:34:35.644Z,16.25
2018-11-27T04:35:11.364Z,16.70
2018-11-27T04:35:45.987Z,16.48
2018-11-27T04:36:20.628Z,15.88
2018-11-27T04:36:55.184Z,15.83
2018-11-27T04:37:29.825Z,15.28
2018-11-27T04:38:04.505Z,15.88
2018-11-27T04:38:39.066Z,15.95
2018-11-27T04:39:13.753Z,15.28
2018-11-27T04:39:48.406Z,15.00
2018-11-27T04:40:23.324Z,15.13
2018-11-27T04:40:57.932Z,15.48
2018-11-27T04:41:32.624Z,15.93
2018-11-27T04:42:07.444Z,16.32
2018-11-27T04:42:42.071Z,14.93
2018-11-27T04:43:16.648Z,15.58
2018-11-27T04:43:51.225Z,15.08
2018-11-27T04:44:25.666Z,15.53
2018-11-27T04:45:00.405Z,13.08
2018-11-27T04:45:34.946Z,15.90
2018-11-27T04:46:09.624Z,14.75
2018-11-27T04:46:44.265Z,14.25
2018-11-27T04:47:18.975Z,16.15
2018-11-27T04:47:53.593Z,16.85
2018-11-27T04:48:28.335Z,14.80
2018-11-27T04:49:02.916Z,14.73
2018-11-27T04:49:37.493Z,15.13
2018-11-27T04:50:13.389Z,15.38
2018-11-27T04:50:48.053Z,15.13
2018-11-27T04:51:22.815Z,14.47
2018-11-27T04:51:57.723Z,14.98
2018-11-27T04:52:32.859Z,13.90
2018-11-27T04:53:07.715Z,15.08
2018-11-27T04:53:42.623Z,15.43
2018-11-27T04:54:17.374Z,14.90
2018-11-27T04:54:51.994Z,15.72
2018-11-27T04:55:26.734Z,15.65
2018-11-27T04:56:01.314Z,13.78
2018-11-27T04:56:36.035Z,16.30
2018-11-27T04:57:10.653Z,15.63
2018-11-27T04:57:45.873Z,14.50
2018-11-27T04:58:20.463Z,15.65
2018-11-27T04:58:55.316Z,15.53
2018-11-27T04:59:30.096Z,15.85
2018-11-27T05:00:05.035Z,16.60
2018-11-27T05:00:39.713Z,15.10
2018-11-27T05:01:14.453Z,15.83
2018-11-27T05:01:49.074Z,15.53
2018-11-27T05:02:23.754Z,14.73
2018-11-27T05:02:58.455Z,15.40
2018-11-27T05:03:33.313Z,15.38
2018-11-27T05:04:08.176Z,14.33
2018-11-27T05:04:43.253Z,14.38
2018-11-27T05:05:18.808Z,15.55
2018-11-27T05:05:53.474Z,14.25
2018-11-27T05:06:28.053Z,15.32
2018-11-27T05:07:02.793Z,14.15
2018-11-27T05:07:37.373Z,15.53
2018-11-27T05:08:12.055Z,15.28
2018-11-27T05:08:46.694Z,15.63
2018-11-27T05:09:21.454Z,16.52
2018-11-27T05:09:56.133Z,15.13
2018-11-27T05:10:30.813Z,14.33
2018-11-27T05:11:05.453Z,13.48
2018-11-27T05:11:40.116Z,15.25
2018-11-27T05:12:14.693Z,15.93
2018-11-27T05:12:49.453Z,16.10
2018-11-27T05:13:24.093Z,16.12
2018-11-27T05:13:58.573Z,15.38
2018-11-27T05:14:33.206Z,15.98
2018-11-27T05:15:11.914Z,16.35
2018-11-27T05:15:46.434Z,15.78
2018-11-27T05:16:21.073Z,14.43
2018-11-27T05:16:55.733Z,15.05
2018-11-27T05:17:30.174Z,15.78
2018-11-27T05:18:04.813Z,14.43
2018-11-27T05:18:39.373Z,15.80
2018-11-27T05:19:13.934Z,14.35
2018-11-27T05:19:48.673Z,16.45
2018-11-27T05:20:23.494Z,14.33
2018-11-27T05:20:58.193Z,14.58
2018-11-27T05:21:32.934Z,14.07
2018-11-27T05:22:07.673Z,14.65
2018-11-27T05:22:42.401Z,15.38
2018-11-27T05:23:17.173Z,15.53
2018-11-27T05:23:51.821Z,14.65
2018-11-27T05:24:26.693Z,13.40
2018-11-27T05:25:01.381Z,13.25
2018-11-27T05:25:36.155Z,15.20
2018-11-27T05:26:10.602Z,14.50
2018-11-27T05:26:45.474Z,14.75
2018-11-27T05:27:20.093Z,14.60
2018-11-27T05:27:55.793Z,16.73
2018-11-27T05:28:30.413Z,15.65
2018-11-27T05:29:05.171Z,14.85
2018-11-27T05:29:39.933Z,15.53
2018-11-27T05:30:17.341Z,14.53
2018-11-27T05:30:52.138Z,16.48
2018-11-27T05:31:26.933Z,15.23
2018-11-27T05:32:01.553Z,15.15
2018-11-27T05:32:36.262Z,15.08
2018-11-27T05:33:11.033Z,15.32
2018-11-27T05:33:45.905Z,14.30
2018-11-27T05:34:20.453Z,16.42
2018-11-27T05:34:55.193Z,16.10
2018-11-27T05:35:30.855Z,16.02
2018-11-27T05:36:05.774Z,14.47
2018-11-27T05:36:40.393Z,14.78
2018-11-27T05:37:14.995Z,14.38
2018-11-27T05:37:50.173Z,15.15
2018-11-27T05:38:24.853Z,15.83
2018-11-27T05:38:59.452Z,13.48
2018-11-27T05:39:34.133Z,14.53
2018-11-27T05:40:11.074Z,15.03
2018-11-27T05:40:45.683Z,15.30
2018-11-27T05:41:20.324Z,15.08
2018-11-27T05:41:54.885Z,14.85
2018-11-27T05:42:29.524Z,15.00
2018-11-27T05:43:09.563Z,14.95
2018-11-27T05:43:46.176Z,14.68
2018-11-27T05:44:18.806Z,15.45
2018-11-27T05:44:53.384Z,14.50
2018-11-27T05:45:28.243Z,14.78
2018-11-27T05:46:02.924Z,15.13
2018-11-27T05:46:37.564Z,14.55
2018-11-27T05:47:12.132Z,15.70
2018-11-27T05:47:46.711Z,13.80
2018-11-27T05:48:21.244Z,15.85
2018-11-27T05:48:55.932Z,15.55
2018-11-27T05:49:30.469Z,14.13
2018-11-27T05:50:05.466Z,15.78
2018-11-27T05:50:40.032Z,15.10
2018-11-27T05:51:14.652Z,13.75
2018-11-27T05:51:49.324Z,14.85
2018-11-27T05:52:23.904Z,16.48
2018-11-27T05:52:58.444Z,15.03
2018-11-27T05:53:33.104Z,16.12
2018-11-27T05:54:07.664Z,14.50
2018-11-27T05:54:42.326Z,15.35
2018-11-27T05:55:17.606Z,14.70
2018-11-27T05:55:52.184Z,16.12
2018-11-27T05:56:26.971Z,15.58
2018-11-27T05:57:01.624Z,14.75
2018-11-27T05:57:36.304Z,14.23
2018-11-27T05:58:10.944Z,15.48
2018-11-27T05:58:45.664Z,15.60
2018-11-27T05:59:20.284Z,14.75
2018-11-27T05:59:54.853Z,15.53
2018-11-27T06:00:30.404Z,15.50
2018-11-27T06:01:05.144Z,15.05
2018-11-27T06:01:39.883Z,14.45
2018-11-27T06:02:14.444Z,16.67
2018-11-27T06:02:50.104Z,15.30
2018-11-27T06:03:24.704Z,16.05
2018-11-27T06:03:59.223Z,15.25
2018-11-27T06:04:33.884Z,15.00
2018-11-27T06:05:11.183Z,14.53
2018-11-27T06:05:45.743Z,14.93
2018-11-27T06:06:20.384Z,16.32
2018-11-27T06:06:55.143Z,17.00
2018-11-27T06:07:29.743Z,15.25
2018-11-27T06:08:04.203Z,16.00
2018-11-27T06:08:38.844Z,16.32
2018-11-27T06:09:13.404Z,16.97
2018-11-27T06:09:48.365Z,17.23
2018-11-27T06:10:23.344Z,16.97
2018-11-27T06:10:57.944Z,16.07
2018-11-27T06:11:32.547Z,16.82
2018-11-27T06:12:07.363Z,16.23
2018-11-27T06:12:42.125Z,16.25
2018-11-27T06:13:16.764Z,15.13
2018-11-27T06:13:51.484Z,16.30
2018-11-27T06:14:26.104Z,16.42
2018-11-27T06:15:00.804Z,16.37
2018-11-27T06:15:35.372Z,16.90
2018-11-27T06:16:10.123Z,19.15
2018-11-27T06:16:44.683Z,18.85
2018-11-27T06:17:19.291Z,17.67
2018-11-27T06:17:54.832Z,17.10
2018-11-27T06:18:29.444Z,17.67
2018-11-27T06:19:04.084Z,16.48
2018-11-27T06:19:38.665Z,18.48
2018-11-27T06:20:15.488Z,18.90
2018-11-27T06:20:50.183Z,17.48
2018-11-27T06:21:24.803Z,16.10
2018-11-27T06:21:59.503Z,17.10
2018-11-27T06:22:34.750Z,15.68
2018-11-27T06:23:09.038Z,14.78
2018-11-27T06:23:43.601Z,16.93
2018-11-27T06:24:18.260Z,15.58
2018-11-27T06:24:52.716Z,15.60
2018-11-27T06:25:28.276Z,14.95
2018-11-27T06:26:02.938Z,15.75
2018-11-27T06:26:37.497Z,15.53
2018-11-27T06:27:12.217Z,16.80
2018-11-27T06:27:47.784Z,22.27
2018-11-27T06:28:22.456Z,21.23
2018-11-27T06:28:57.245Z,18.90
2018-11-27T06:29:38.418Z,17.52
2018-11-27T06:30:18.097Z,16.42
2018-11-27T06:30:52.664Z,16.57
2018-11-27T06:31:27.320Z,15.70
2018-11-27T06:32:01.936Z,16.50
2018-11-27T06:32:36.645Z,17.12
2018-11-27T06:33:11.404Z,19.80
2018-11-27T06:33:45.964Z,18.48
2018-11-27T06:34:20.496Z,17.27
2018-11-27T06:34:55.157Z,16.45
2018-11-27T06:35:35.536Z,14.03
2018-11-27T06:36:10.265Z,17.30
2018-11-27T06:36:44.884Z,16.90
2018-11-27T06:37:19.444Z,16.75
2018-11-27T06:37:53.981Z,16.80
2018-11-27T06:38:28.657Z,16.27
2018-11-27T06:39:03.296Z,16.32
2018-11-27T06:39:38.005Z,16.30
2018-11-27T06:40:14.096Z,14.98
2018-11-27T06:40:48.876Z,15.58
2018-11-27T06:41:23.416Z,14.45
2018-11-27T06:41:58.056Z,15.70
2018-11-27T06:42:32.536Z,13.58
2018-11-27T06:43:08.620Z,12.80
2018-11-27T06:43:43.238Z,13.48
2018-11-27T06:44:17.819Z,14.53
2018-11-27T06:44:52.476Z,13.95
2018-11-27T06:45:27.059Z,14.00
2018-11-27T06:46:01.604Z,13.10
2018-11-27T06:46:36.244Z,12.68
2018-11-27T06:47:10.937Z,12.90
2018-11-27T06:47:45.984Z,13.13
2018-11-27T06:48:20.556Z,13.80
2018-11-27T06:48:55.357Z,13.40
2018-11-27T06:49:30.019Z,13.43
2018-11-27T06:50:04.796Z,14.33
2018-11-27T06:50:39.397Z,13.70
2018-11-27T06:51:14.156Z,13.48
2018-11-27T06:51:48.696Z,14.18
2018-11-27T06:52:23.364Z,14.73
2018-11-27T06:52:57.917Z,14.73
2018-11-27T06:53:32.583Z,15.10
2018-11-27T06:54:08.047Z,13.80
2018-11-27T06:54:42.656Z,16.17
2018-11-27T06:55:18.116Z,13.50
2018-11-27T06:55:52.767Z,13.85
2018-11-27T06:56:27.416Z,14.20
2018-11-27T06:57:01.978Z,13.00
2018-11-27T06:57:36.516Z,14.75
2018-11-27T06:58:11.356Z,14.70
2018-11-27T06:58:45.916Z,14.07
2018-11-27T06:59:20.616Z,12.45
2018-11-27T06:59:55.124Z,14.05
2018-11-27T07:00:30.196Z,14.30
2018-11-27T07:01:04.876Z,13.90
2018-11-27T07:01:39.537Z,14.73
2018-11-27T07:02:14.196Z,13.90
2018-11-27T07:02:48.817Z,14.00
2018-11-27T07:03:23.418Z,14.68
2018-11-27T07:03:58.076Z,14.60
2018-11-27T07:04:32.876Z,13.58
2018-11-27T07:05:07.976Z,13.98
2018-11-27T07:05:42.597Z,14.05
2018-11-27T07:06:17.296Z,14.85
2018-11-27T07:06:52.032Z,14.43
2018-11-27T07:07:26.616Z,13.50
2018-11-27T07:08:01.256Z,15.48
2018-11-27T07:08:35.837Z,15.13
2018-11-27T07:09:10.935Z,14.87
2018-11-27T07:09:45.576Z,15.32
2018-11-27T07:10:21.238Z,15.70
2018-11-27T07:10:55.937Z,12.80
2018-11-27T07:11:30.579Z,14.28
2018-11-27T07:12:05.356Z,15.65
2018-11-27T07:12:39.917Z,15.63
2018-11-27T07:13:16.877Z,15.08
2018-11-27T07:13:51.756Z,14.25
2018-11-27T07:14:26.176Z,14.73
2018-11-27T07:15:00.956Z,14.50
2018-11-27T07:15:35.516Z,15.03
2018-11-27T07:16:10.105Z,15.28
2018-11-27T07:16:44.556Z,15.30
2018-11-27T07:17:19.216Z,15.10
2018-11-27T07:17:53.856Z,15.75
2018-11-27T07:18:28.535Z,14.20
2018-11-27T07:19:03.077Z,14.23
2018-11-27T07:19:37.797Z,14.55
2018-11-27T07:20:13.116Z,14.28
2018-11-27T07:20:47.859Z,13.95
2018-11-27T07:21:22.387Z,14.28
2018-11-27T07:21:56.947Z,14.07
2018-11-27T07:22:31.487Z,15.15
2018-11-27T07:23:06.347Z,14.47
2018-11-27T07:23:41.127Z,13.25
2018-11-27T07:24:15.666Z,14.47
2018-11-27T07:24:50.349Z,14.43
2018-11-27T07:25:24.947Z,14.40
2018-11-27T07:25:59.527Z,14.65
2018-11-27T07:26:34.108Z,14.43
2018-11-27T07:27:08.795Z,13.68
2018-11-27T07:27:48.089Z,15.30
2018-11-27T07:28:22.747Z,13.20
2018-11-27T07:28:57.327Z,13.18